Time;durP1;ratioP1;P1;durP2;ratioP2;P2;SDS_P1;SDS_P2;PMS_P1;PMS_P2;Temp;Humidity;BMP_temperature;BMP_pressure;BME280_temperature;BME280_humidity;BME280_pressure;Samples;Min_cycle;Max_cycle;Signal;HPM_P1;HPM_P2
2021/03/22 00:00:56;;;;;;;12.75;8.65;;;3.80;68.90;;;;;;5050226;28;20206;-70
2021/03/22 00:03:26;;;;;;;12.68;9.57;;;3.70;68.80;;;;;;5050744;28;20233;-70
2021/03/22 00:05:54;;;;;;;13.30;10.35;;;3.70;69.00;;;;;;5050083;28;20206;-70
2021/03/22 00:08:26;;;;;;;12.77;8.48;;;3.70;68.50;;;;;;5053491;28;20191;-70
2021/03/22 00:10:53;;;;;;;12.27;7.70;;;3.70;68.80;;;;;;5053527;28;20198;-70
2021/03/22 00:13:25;;;;;;;14.00;8.90;;;3.70;68.60;;;;;;5053385;28;20202;-71
2021/03/22 00:15:59;;;;;;;14.77;9.13;;;3.70;69.00;;;;;;5053825;28;20194;-71
2021/03/22 00:18:31;;;;;;;13.48;9.63;;;3.70;69.30;;;;;;5051876;28;20190;-70
2021/03/22 00:20:58;;;;;;;11.25;8.02;;;3.70;69.40;;;;;;5053660;28;20252;-70
2021/03/22 00:23:27;;;;;;;13.65;9.45;;;3.70;69.20;;;;;;5052388;28;20222;-71
2021/03/22 00:25:56;;;;;;;11.45;8.25;;;3.70;68.60;;;;;;5053457;28;20198;-70
2021/03/22 00:28:29;;;;;;;11.55;8.10;;;3.70;69.00;;;;;;5052875;28;20187;-71
2021/03/22 00:30:56;;;;;;;13.50;7.38;;;3.60;69.20;;;;;;5052224;28;20198;-71
2021/03/22 00:33:24;;;;;;;10.70;7.63;;;3.50;70.50;;;;;;5052991;28;20199;-70
2021/03/22 00:35:52;;;;;;;13.60;9.15;;;3.50;70.10;;;;;;5053471;28;20212;-70
2021/03/22 00:38:20;;;;;;;15.90;9.68;;;3.50;70.00;;;;;;5052267;28;20194;-70
2021/03/22 00:40:48;;;;;;;12.32;8.50;;;3.50;70.10;;;;;;5053236;28;20199;-70
2021/03/22 00:43:18;;;;;;;13.02;8.00;;;3.60;70.30;;;;;;5052891;28;20650;-71
2021/03/22 00:45:45;;;;;;;11.40;7.35;;;3.60;70.40;;;;;;5052862;28;20198;-70
2021/03/22 00:48:15;;;;;;;13.00;8.73;;;3.60;70.40;;;;;;5052351;28;20285;-70
2021/03/22 00:50:49;;;;;;;13.45;7.57;;;3.60;70.10;;;;;;5052081;28;20649;-70
2021/03/22 00:53:17;;;;;;;14.38;8.35;;;3.60;70.20;;;;;;5052712;28;20229;-70
2021/03/22 00:55:54;;;;;;;11.05;7.43;;;3.70;69.90;;;;;;5052531;28;20545;-70
2021/03/22 00:58:23;;;;;;;16.33;9.23;;;3.70;69.80;;;;;;5052512;28;20190;-70
2021/03/22 01:00:58;;;;;;;12.18;8.80;;;3.70;69.40;;;;;;5052910;28;20601;-71
2021/03/22 01:03:27;;;;;;;14.43;8.88;;;3.70;69.10;;;;;;5052386;28;20221;-71
2021/03/22 01:05:54;;;;;;;12.93;8.77;;;3.70;69.30;;;;;;5052582;28;20194;-70
2021/03/22 01:08:25;;;;;;;11.32;8.30;;;3.80;69.30;;;;;;5051943;28;20198;-71
2021/03/22 01:10:57;;;;;;;14.00;9.38;;;3.70;69.20;;;;;;5052869;28;20190;-70
2021/03/22 01:13:26;;;;;;;10.93;7.70;;;3.70;68.80;;;;;;5052640;28;20242;-70
2021/03/22 01:15:54;;;;;;;11.50;7.80;;;3.70;69.20;;;;;;5052056;28;20288;-70
2021/03/22 01:18:24;;;;;;;13.60;8.35;;;3.70;70.50;;;;;;5052093;28;20206;-71
2021/03/22 01:20:56;;;;;;;16.73;9.52;;;3.70;69.80;;;;;;5052650;28;20292;-70
2021/03/22 01:23:31;;;;;;;12.43;8.43;;;3.70;69.80;;;;;;5052036;28;20218;-70
2021/03/22 01:25:58;;;;;;;20.73;8.40;;;3.70;69.80;;;;;;5051687;28;20652;-70
2021/03/22 01:28:25;;;;;;;13.80;9.35;;;3.70;69.80;;;;;;5052155;28;20268;-71
2021/03/22 01:30:59;;;;;;;13.27;8.60;;;3.80;70.10;;;;;;5052061;28;20193;-71
2021/03/22 01:33:33;;;;;;;12.30;9.23;;;3.80;70.20;;;;;;5052109;28;20225;-70
2021/03/22 01:36:02;;;;;;;13.40;9.65;;;3.80;70.30;;;;;;5049873;28;20194;-70
2021/03/22 01:38:33;;;;;;;9.27;7.32;;;3.70;70.30;;;;;;5051711;28;20190;-70
2021/03/22 01:41:36;;;;;;;10.70;8.02;;;3.70;70.50;;;;;;5051546;28;20194;-70
2021/03/22 01:44:25;;;;;;;16.70;9.52;;;3.70;70.60;;;;;;5043909;28;20230;-70
2021/03/22 01:46:59;;;;;;;15.60;8.90;;;3.70;70.60;;;;;;5047965;28;20222;-71
2021/03/22 01:49:37;;;;;;;12.57;8.25;;;3.70;70.60;;;;;;5051894;28;20198;-70
2021/03/22 01:52:08;;;;;;;13.80;9.20;;;3.70;70.80;;;;;;5051573;28;20248;-70
2021/03/22 01:54:41;;;;;;;11.55;8.65;;;3.70;70.60;;;;;;5051740;28;20238;-70
2021/03/22 01:57:30;;;;;;;16.55;9.63;;;3.80;69.80;;;;;;5051009;28;20213;-70
2021/03/22 02:00:09;;;;;;;13.60;8.23;;;3.70;69.80;;;;;;5048627;28;20332;-70
2021/03/22 02:02:40;;;;;;;15.43;7.88;;;3.70;70.90;;;;;;5050269;28;20244;-70
2021/03/22 02:05:12;;;;;;;11.45;9.13;;;3.70;70.10;;;;;;5051595;28;20269;-70
2021/03/22 02:07:48;;;;;;;10.50;7.93;;;3.80;71.30;;;;;;5051251;28;20614;-71
2021/03/22 02:10:16;;;;;;;13.13;9.20;;;3.80;70.10;;;;;;5051365;28;20277;-70
2021/03/22 02:12:43;;;;;;;11.45;8.05;;;3.80;70.10;;;;;;5050245;28;20194;-70
2021/03/22 02:15:11;;;;;;;12.75;8.18;;;3.80;70.10;;;;;;5051324;28;20608;-70
2021/03/22 02:17:50;;;;;;;12.80;8.75;;;3.80;70.10;;;;;;5051135;28;20191;-70
2021/03/22 02:20:49;;;;;;;15.98;8.35;;;3.80;70.00;;;;;;5051208;28;20201;-71
2021/03/22 02:23:51;;;;;;;13.95;8.52;;;3.80;70.10;;;;;;5051354;28;20190;-70
2021/03/22 02:26:50;;;;;;;10.57;8.43;;;3.80;70.00;;;;;;5050748;28;20530;-71
2021/03/22 02:29:46;;;;;;;11.52;7.68;;;3.80;70.10;;;;;;5044656;28;20202;-70
2021/03/22 02:32:40;;;;;;;18.58;9.40;;;3.70;70.20;;;;;;5049564;28;20198;-71
2021/03/22 02:35:14;;;;;;;9.00;6.70;;;3.80;70.30;;;;;;5048621;28;20616;-70
2021/03/22 02:37:57;;;;;;;13.43;8.95;;;3.80;70.30;;;;;;5049476;28;20194;-70
2021/03/22 02:40:37;;;;;;;14.48;9.68;;;3.80;70.40;;;;;;5050696;28;20201;-70
2021/03/22 02:43:08;;;;;;;18.00;8.85;;;3.80;70.20;;;;;;5051302;28;20198;-70
2021/03/22 02:45:42;;;;;;;12.38;9.05;;;3.80;70.00;;;;;;5047497;28;20558;-70
2021/03/22 02:48:30;;;;;;;12.70;8.77;;;3.90;70.30;;;;;;5048983;28;20289;-71
2021/03/22 02:51:13;;;;;;;13.85;7.93;;;3.90;70.40;;;;;;5050053;28;20199;-70
2021/03/22 02:53:46;;;;;;;11.85;8.52;;;3.80;70.30;;;;;;5050661;28;20251;-70
2021/03/22 02:56:25;;;;;;;10.88;7.78;;;3.90;70.60;;;;;;5050568;28;20190;-70
2021/03/22 02:58:57;;;;;;;13.70;7.97;;;3.80;70.20;;;;;;5050799;28;21180;-71
2021/03/22 03:01:28;;;;;;;14.27;9.13;;;3.80;70.30;;;;;;5050516;28;20190;-70
2021/03/22 03:04:00;;;;;;;15.88;10.48;;;3.90;70.70;;;;;;5050951;28;20229;-71
2021/03/22 03:06:46;;;;;;;13.98;8.90;;;3.80;70.60;;;;;;5050408;28;20191;-70
2021/03/22 03:09:13;;;;;;;18.63;9.57;;;3.90;70.90;;;;;;5048311;28;20190;-70
2021/03/22 03:11:43;;;;;;;13.75;8.80;;;3.80;70.70;;;;;;5050140;28;20265;-70
2021/03/22 03:14:10;;;;;;;19.45;9.18;;;3.80;70.80;;;;;;5050932;28;20224;-70
2021/03/22 03:16:39;;;;;;;13.25;8.82;;;3.80;70.90;;;;;;5054611;28;20248;-71
2021/03/22 03:19:11;;;;;;;13.15;8.70;;;3.80;71.00;;;;;;5054194;28;20562;-71
2021/03/22 03:21:41;;;;;;;16.45;10.15;;;3.90;71.10;;;;;;5053774;28;20659;-70
2021/03/22 03:24:10;;;;;;;18.13;11.90;;;3.80;71.00;;;;;;5051507;28;20226;-70
2021/03/22 03:26:38;;;;;;;17.70;11.98;;;3.80;70.90;;;;;;5054567;28;20190;-71
2021/03/22 03:29:14;;;;;;;17.85;10.43;;;3.80;71.40;;;;;;5053670;28;20700;-71
2021/03/22 03:31:40;;;;;;;17.92;10.45;;;3.80;71.50;;;;;;5051969;28;20630;-70
2021/03/22 03:34:07;;;;;;;13.32;9.55;;;3.90;71.50;;;;;;5054048;28;20202;-70
2021/03/22 03:36:34;;;;;;;15.45;10.30;;;3.90;71.50;;;;;;5054301;28;20323;-70
2021/03/22 03:39:06;;;;;;;18.77;10.43;;;3.90;71.70;;;;;;5053820;28;20645;-71
2021/03/22 03:41:35;;;;;;;19.42;10.85;;;3.90;71.70;;;;;;5053937;28;20194;-71
2021/03/22 03:44:02;;;;;;;12.25;8.80;;;3.90;71.80;;;;;;5054326;28;20222;-71
2021/03/22 03:46:28;;;;;;;13.88;9.85;;;3.90;72.30;;;;;;5052025;28;20186;-70
2021/03/22 03:48:55;;;;;;;13.45;8.10;;;3.90;71.90;;;;;;5053746;28;20273;-71
2021/03/22 03:51:29;;;;;;;20.73;10.10;;;3.90;71.90;;;;;;5053836;28;22213;-71
2021/03/22 03:53:55;;;;;;;18.73;9.48;;;3.90;71.90;;;;;;5053910;28;20626;-71
2021/03/22 03:56:25;;;;;;;14.88;10.10;;;3.90;71.80;;;;;;5053953;28;20191;-71
2021/03/22 03:58:58;;;;;;;13.45;9.35;;;3.90;72.00;;;;;;5053730;28;20233;-71
2021/03/22 04:01:26;;;;;;;14.48;8.65;;;3.90;71.90;;;;;;5053656;28;20197;-71
2021/03/22 04:03:55;;;;;;;18.35;10.50;;;3.90;71.70;;;;;;5054229;28;20229;-71
2021/03/22 04:06:29;;;;;;;14.88;9.80;;;3.90;71.80;;;;;;5053762;28;20664;-70
2021/03/22 04:08:58;;;;;;;19.02;9.82;;;3.90;71.80;;;;;;5053661;28;20237;-71
2021/03/22 04:11:32;;;;;;;15.30;9.70;;;3.90;71.90;;;;;;5053449;28;20260;-71
2021/03/22 04:14:01;;;;;;;14.13;9.30;;;3.90;72.00;;;;;;5054170;28;20198;-70
2021/03/22 04:16:30;;;;;;;15.25;10.55;;;3.90;72.00;;;;;;5053579;28;20186;-70
2021/03/22 04:18:59;;;;;;;14.23;8.98;;;3.90;72.20;;;;;;5053444;28;20194;-70
2021/03/22 04:21:33;;;;;;;16.17;9.95;;;3.90;72.30;;;;;;5052612;28;20202;-71
2021/03/22 04:24:04;;;;;;;17.83;11.10;;;4.00;72.50;;;;;;5053507;28;20570;-71
2021/03/22 04:26:31;;;;;;;13.43;8.32;;;4.00;72.40;;;;;;5053538;28;20190;-70
2021/03/22 04:29:00;;;;;;;21.80;10.68;;;4.00;72.20;;;;;;5053207;28;20282;-71
2021/03/22 04:31:31;;;;;;;14.82;9.50;;;4.00;72.40;;;;;;5052946;28;20268;-70
2021/03/22 04:33:58;;;;;;;18.63;10.13;;;4.00;72.60;;;;;;5053443;28;20657;-71
2021/03/22 04:36:29;;;;;;;14.27;9.05;;;4.00;72.90;;;;;;5053218;28;20240;-70
2021/03/22 04:38:56;;;;;;;14.65;9.40;;;4.00;72.90;;;;;;5053300;28;20198;-71
2021/03/22 04:41:24;;;;;;;18.27;10.43;;;4.00;72.70;;;;;;5053454;28;20248;-70
2021/03/22 04:43:59;;;;;;;19.25;8.70;;;4.00;72.60;;;;;;5052303;28;20226;-70
2021/03/22 04:46:26;;;;;;;19.65;10.18;;;4.00;72.50;;;;;;5052519;28;20198;-71
2021/03/22 04:48:53;;;;;;;21.88;11.48;;;4.00;72.60;;;;;;5052375;28;20597;-71
2021/03/22 04:51:26;;;;;;;18.58;10.90;;;4.00;72.70;;;;;;5052862;28;20258;-71
2021/03/22 04:53:56;;;;;;;15.52;8.50;;;4.00;72.80;;;;;;5052664;28;20730;-70
2021/03/22 04:56:27;;;;;;;12.88;8.88;;;4.00;73.00;;;;;;5053044;28;20651;-70
2021/03/22 04:58:55;;;;;;;13.88;9.82;;;4.00;72.90;;;;;;5052221;28;20209;-71
2021/03/22 05:01:22;;;;;;;20.60;11.43;;;4.00;73.00;;;;;;5052706;28;20621;-70
2021/03/22 05:03:49;;;;;;;17.00;9.63;;;4.10;73.20;;;;;;5052743;28;20268;-71
2021/03/22 05:06:17;;;;;;;32.13;12.48;;;4.10;73.20;;;;;;5053119;28;20252;-70
2021/03/22 05:08:44;;;;;;;19.00;9.02;;;4.10;73.20;;;;;;5052316;28;20194;-70
2021/03/22 05:11:11;;;;;;;17.42;7.97;;;4.10;73.00;;;;;;5052791;28;20198;-70
2021/03/22 05:13:38;;;;;;;18.10;10.10;;;4.10;72.80;;;;;;5052669;28;20736;-72
2021/03/22 05:16:05;;;;;;;17.98;8.85;;;4.10;72.90;;;;;;5052427;28;20252;-71
2021/03/22 05:18:34;;;;;;;20.65;10.15;;;4.10;73.00;;;;;;5052640;28;20233;-71
2021/03/22 05:21:03;;;;;;;18.55;9.40;;;4.10;72.80;;;;;;5052265;28;20645;-70
2021/03/22 05:23:37;;;;;;;18.35;9.40;;;4.10;73.90;;;;;;5052305;28;20198;-70
2021/03/22 05:26:06;;;;;;;20.58;9.10;;;4.10;73.20;;;;;;5052225;28;20197;-70
2021/03/22 05:28:41;;;;;;;17.02;9.35;;;4.10;73.00;;;;;;5052646;28;20194;-71
2021/03/22 05:31:10;;;;;;;21.77;9.45;;;4.10;73.20;;;;;;5049471;28;20194;-71
2021/03/22 05:33:47;;;;;;;18.33;10.98;;;4.10;73.20;;;;;;5052741;28;20588;-71
2021/03/22 05:36:14;;;;;;;16.13;9.13;;;4.10;72.90;;;;;;5050958;28;20577;-71
2021/03/22 05:38:44;;;;;;;19.88;9.18;;;4.20;73.00;;;;;;5051899;28;20198;-71
2021/03/22 05:41:18;;;;;;;18.52;9.07;;;4.20;73.00;;;;;;5051782;28;20264;-70
2021/03/22 05:43:59;;;;;;;17.58;8.25;;;4.20;72.80;;;;;;5037073;28;20221;-71
2021/03/22 05:46:48;;;;;;;21.00;9.40;;;4.20;72.80;;;;;;5016567;28;20201;-71
2021/03/22 05:49:40;;;;;;;19.33;7.93;;;4.20;72.50;;;;;;5020694;28;20198;-71
2021/03/22 05:52:46;;;;;;;21.08;7.88;;;4.20;72.30;;;;;;5026857;28;20652;-71
2021/03/22 05:55:41;;;;;;;22.35;8.82;;;4.20;72.20;;;;;;5020059;28;20209;-72
2021/03/22 05:58:25;;;;;;;15.82;7.95;;;4.30;72.00;;;;;;5020529;28;20194;-73
2021/03/22 06:00:57;;;;;;;20.25;7.22;;;4.30;71.70;;;;;;5012802;28;21049;-74
2021/03/22 06:03:31;;;;;;;17.45;9.23;;;4.30;71.60;;;;;;5026767;28;20210;-78
2021/03/22 06:06:10;;;;;;;17.75;7.45;;;4.30;71.30;;;;;;5026207;28;20680;-76
2021/03/22 06:08:46;;;;;;;16.38;9.10;;;4.30;71.40;;;;;;5018007;28;22499;-76
2021/03/22 06:11:41;;;;;;;13.43;8.30;;;4.30;71.20;;;;;;5021786;28;20204;-76
2021/03/22 06:14:14;;;;;;;18.05;7.75;;;4.30;71.00;;;;;;5026278;28;20206;-75
2021/03/22 06:16:47;;;;;;;18.48;8.13;;;4.40;70.70;;;;;;5021612;28;20260;-77
2021/03/22 06:19:19;;;;;;;17.58;7.68;;;4.40;70.50;;;;;;5020842;28;20205;-75
2021/03/22 06:21:52;;;;;;;18.75;6.95;;;4.40;70.20;;;;;;5023168;28;20240;-77
2021/03/22 06:24:22;;;;;;;17.00;6.75;;;4.40;69.90;;;;;;5011738;28;20222;-77
2021/03/22 06:26:53;;;;;;;18.70;7.97;;;4.50;69.90;;;;;;5025088;28;20237;-75
2021/03/22 06:29:24;;;;;;;26.73;6.30;;;4.50;70.00;;;;;;5018022;28;20202;-76
2021/03/22 06:31:55;;;;;;;19.88;6.95;;;4.50;69.40;;;;;;5026180;28;20206;-75
2021/03/22 06:34:33;;;;;;;15.95;6.53;;;4.50;69.40;;;;;;5016256;28;20206;-76
2021/03/22 06:37:02;;;;;;;19.50;8.30;;;4.50;69.20;;;;;;5025274;28;20759;-75
2021/03/22 06:39:29;;;;;;;17.95;7.20;;;4.60;69.30;;;;;;5014289;28;21085;-76
2021/03/22 06:41:56;;;;;;;14.50;6.43;;;4.60;69.40;;;;;;5024195;28;20256;-75
2021/03/22 06:44:39;;;;;;;14.65;7.00;;;4.70;69.10;;;;;;5014281;28;20580;-76
2021/03/22 06:47:27;;;;;;;17.30;7.53;;;4.70;69.00;;;;;;5025889;28;20198;-76
2021/03/22 06:50:14;;;;;;;13.90;5.95;;;4.60;69.00;;;;;;5029066;28;20206;-76
2021/03/22 06:52:47;;;;;;;17.40;7.10;;;4.70;69.10;;;;;;5023326;28;21008;-76
2021/03/22 06:55:33;;;;;;;29.83;8.15;;;4.70;69.00;;;;;;5023904;28;20683;-76
2021/03/22 06:58:00;;;;;;;12.38;6.30;;;4.80;68.60;;;;;;5016471;28;20304;-75
2021/03/22 07:00:29;;;;;;;19.13;7.40;;;4.80;68.50;;;;;;5029425;28;20206;-75
2021/03/22 07:02:58;;;;;;;17.02;6.53;;;4.80;68.20;;;;;;5029826;28;20225;-75
2021/03/22 07:05:33;;;;;;;23.17;8.60;;;4.80;68.00;;;;;;5018737;28;20222;-76
2021/03/22 07:08:02;;;;;;;17.02;7.65;;;4.80;68.80;;;;;;5029311;28;20236;-75
2021/03/22 07:10:32;;;;;;;15.10;7.40;;;4.80;68.00;;;;;;5016953;28;20643;-75
2021/03/22 07:13:08;;;;;;;14.85;6.03;;;4.80;68.00;;;;;;5029792;28;20199;-75
2021/03/22 07:15:36;;;;;;;15.93;7.78;;;4.80;68.10;;;;;;5019950;28;20749;-75
2021/03/22 07:18:13;;;;;;;22.35;6.45;;;4.80;68.20;;;;;;5030357;28;20229;-75
2021/03/22 07:20:40;;;;;;;22.65;6.78;;;4.70;68.50;;;;;;5023934;28;20584;-74
2021/03/22 07:23:39;;;;;;;16.40;6.93;;;4.70;68.70;;;;;;5028391;28;20230;-74
2021/03/22 07:26:12;;;;;;;18.35;7.05;;;4.70;69.10;;;;;;5037852;28;20202;-74
2021/03/22 07:28:50;;;;;;;17.33;7.32;;;4.80;69.10;;;;;;5023152;28;20260;-75
2021/03/22 07:31:26;;;;;;;11.70;5.85;;;4.80;69.20;;;;;;5021203;28;20229;-75
2021/03/22 07:34:04;;;;;;;18.77;5.70;;;4.80;69.10;;;;;;5028814;28;20202;-73
2021/03/22 07:36:40;;;;;;;14.77;5.00;;;4.70;69.20;;;;;;5016561;28;20257;-74
2021/03/22 07:39:24;;;;;;;17.42;5.68;;;4.70;69.40;;;;;;5025409;28;20198;-75
2021/03/22 07:42:03;;;;;;;28.88;7.20;;;4.70;69.40;;;;;;5028781;28;20210;-74
2021/03/22 07:44:42;;;;;;;15.38;6.15;;;4.70;69.20;;;;;;5014466;28;20214;-75
2021/03/22 07:47:23;;;;;;;13.82;5.13;;;4.70;69.30;;;;;;5026089;28;20300;-75
2021/03/22 07:49:59;;;;;;;20.15;7.97;;;4.70;69.50;;;;;;5026219;28;20238;-74
2021/03/22 07:52:32;;;;;;;21.10;6.72;;;4.70;69.60;;;;;;5017444;28;20201;-74
2021/03/22 07:55:26;;;;;;;17.05;5.88;;;4.70;69.40;;;;;;5028483;28;20252;-74
2021/03/22 07:58:02;;;;;;;17.63;6.30;;;4.70;69.60;;;;;;5028301;28;21065;-74
2021/03/22 08:00:40;;;;;;;19.50;6.38;;;4.80;69.50;;;;;;5015693;28;21491;-75
2021/03/22 08:03:34;;;;;;;33.58;6.50;;;4.80;69.40;;;;;;5039611;28;20229;-74
2021/03/22 08:06:21;;;;;;;22.20;7.22;;;4.90;69.40;;;;;;5028809;28;20218;-74
2021/03/22 08:09:10;;;;;;;18.95;6.32;;;5.00;69.50;;;;;;5027041;28;20198;-74
2021/03/22 08:11:43;;;;;;;17.85;5.90;;;5.00;69.20;;;;;;5020629;28;20213;-75
2021/03/22 08:14:17;;;;;;;16.92;7.05;;;5.20;69.60;;;;;;5024565;28;20194;-76
2021/03/22 08:17:12;;;;;;;13.25;6.63;;;5.30;69.00;;;;;;5024991;28;20973;-74
2021/03/22 08:19:43;;;;;;;20.20;7.13;;;5.50;68.70;;;;;;5021471;28;20381;-74
2021/03/22 08:22:18;;;;;;;13.70;5.38;;;5.60;68.20;;;;;;5027584;28;20199;-75
2021/03/22 08:25:02;;;;;;;14.02;5.28;;;5.80;68.30;;;;;;5025319;28;20700;-74
2021/03/22 08:27:33;;;;;;;21.23;7.57;;;6.00;67.30;;;;;;5017012;28;20300;-75
2021/03/22 08:30:06;;;;;;;15.15;6.03;;;6.30;67.30;;;;;;5028225;28;20256;-75
2021/03/22 08:32:40;;;;;;;22.48;5.82;;;6.60;65.70;;;;;;5016890;28;20593;-74
2021/03/22 08:35:14;;;;;;;20.63;6.18;;;6.70;64.70;;;;;;5028587;28;20218;-74
2021/03/22 08:37:46;;;;;;;22.88;5.80;;;6.90;63.60;;;;;;5022243;28;20278;-74
2021/03/22 08:40:17;;;;;;;17.77;5.63;;;7.00;62.30;;;;;;5021161;28;20206;-76
2021/03/22 08:42:48;;;;;;;13.27;4.85;;;7.00;60.60;;;;;;5024754;28;20241;-75
2021/03/22 08:45:25;;;;;;;24.63;5.60;;;7.00;60.00;;;;;;5020783;28;20272;-76
2021/03/22 08:47:58;;;;;;;19.65;6.28;;;7.00;60.40;;;;;;5026176;28;20202;-75
2021/03/22 08:50:26;;;;;;;20.80;6.03;;;7.00;60.30;;;;;;5015841;28;20256;-75
2021/03/22 08:52:59;;;;;;;17.88;7.47;;;7.00;60.00;;;;;;5025506;28;20280;-76
2021/03/22 08:55:41;;;;;;;18.90;5.35;;;7.00;60.00;;;;;;5016465;28;20229;-76
2021/03/22 08:58:18;;;;;;;16.63;5.63;;;7.00;59.90;;;;;;5028294;28;20210;-76
2021/03/22 09:00:46;;;;;;;18.67;6.45;;;7.00;59.30;;;;;;5024527;28;20267;-75
2021/03/22 09:03:34;;;;;;;17.88;5.35;;;6.90;58.20;;;;;;5023788;28;20199;-77
2021/03/22 09:06:15;;;;;;;15.95;5.65;;;6.80;58.00;;;;;;5025790;28;20214;-76
2021/03/22 09:08:58;;;;;;;21.75;5.60;;;6.90;58.70;;;;;;5022634;28;20221;-76
2021/03/22 09:11:32;;;;;;;17.50;5.82;;;7.00;58.80;;;;;;5014365;28;20198;-76
2021/03/22 09:14:01;;;;;;;15.13;5.43;;;7.20;59.60;;;;;;5026643;28;20198;-75
2021/03/22 09:16:41;;;;;;;66.13;25.80;;;7.70;59.80;;;;;;5014837;28;20218;-75
2021/03/22 09:19:38;;;;;;;23.42;7.78;;;8.00;58.10;;;;;;5027325;28;20552;-75
2021/03/22 09:22:43;;;;;;;39.28;14.40;;;8.10;56.60;;;;;;5025544;28;20627;-75
2021/03/22 09:25:12;;;;;;;15.85;5.88;;;8.10;55.80;;;;;;5024104;28;20222;-76
2021/03/22 09:27:39;;;;;;;44.13;18.30;;;8.00;55.70;;;;;;5019480;28;20349;-75
2021/03/22 09:30:33;;;;;;;55.10;25.55;;;7.90;55.10;;;;;;5027268;28;20620;-75
2021/03/22 09:33:00;;;;;;;27.10;13.40;;;8.00;55.50;;;;;;5026067;28;20210;-75
2021/03/22 09:36:12;;;;;;;18.88;10.02;;;8.10;55.60;;;;;;5015854;28;20201;-75
2021/03/22 09:38:56;;;;;;;18.05;7.82;;;8.20;55.50;;;;;;5019657;28;20202;-74
2021/03/22 09:41:56;;;;;;;16.33;5.75;;;8.40;55.30;;;;;;5017060;28;20206;-75
2021/03/22 09:44:25;;;;;;;17.55;7.13;;;8.60;56.10;;;;;;5014687;28;20898;-75
2021/03/22 09:47:05;;;;;;;17.52;6.47;;;8.70;55.10;;;;;;5026103;28;20198;-75
2021/03/22 09:49:53;;;;;;;29.67;7.75;;;8.80;53.70;;;;;;5014991;28;21019;-75
2021/03/22 09:52:28;;;;;;;18.48;4.60;;;8.80;53.40;;;;;;5017305;28;20652;-75
2021/03/22 09:54:56;;;;;;;13.98;6.03;;;8.80;52.80;;;;;;5025944;28;20232;-75
2021/03/22 09:57:45;;;;;;;20.10;7.93;;;8.70;52.10;;;;;;5016548;28;20202;-75
2021/03/22 10:00:42;;;;;;;15.13;5.20;;;8.50;50.50;;;;;;5021083;28;20198;-75
2021/03/22 10:04:00;;;;;;;13.73;4.97;;;8.40;51.40;;;;;;5024213;28;20198;-75
2021/03/22 10:06:49;;;;;;;19.10;5.03;;;8.60;53.20;;;;;;4989363;28;20210;-77
2021/03/22 10:09:20;;;;;;;22.52;6.40;;;8.90;52.90;;;;;;5018577;28;20203;-75
2021/03/22 10:11:49;;;;;;;23.40;6.18;;;9.20;51.80;;;;;;5024680;28;20297;-76
2021/03/22 10:14:21;;;;;;;11.10;5.18;;;9.30;51.00;;;;;;5019294;28;20295;-76
2021/03/22 10:16:50;;;;;;;11.32;4.30;;;9.20;50.30;;;;;;5025267;28;20209;-76
2021/03/22 10:19:20;;;;;;;12.18;4.95;;;8.90;48.50;;;;;;5018842;28;20285;-76
2021/03/22 10:21:51;;;;;;;20.42;4.50;;;8.50;48.90;;;;;;5024624;28;20210;-76
2021/03/22 10:24:33;;;;;;;17.35;4.88;;;8.30;49.60;;;;;;5019663;28;20225;-76
2021/03/22 10:27:01;;;;;;;12.18;6.88;;;8.10;50.10;;;;;;5024934;28;20268;-76
2021/03/22 10:29:32;;;;;;;19.02;11.35;;;7.90;50.30;;;;;;5016246;28;20194;-76
2021/03/22 10:32:03;;;;;;;11.65;7.07;;;7.90;51.10;;;;;;5028370;28;20202;-76
2021/03/22 10:34:33;;;;;;;18.58;6.80;;;7.80;51.10;;;;;;5016557;28;20577;-75
2021/03/22 10:37:11;;;;;;;10.45;5.50;;;7.80;51.30;;;;;;5027487;28;20207;-75
2021/03/22 10:39:44;;;;;;;20.48;6.90;;;7.90;51.60;;;;;;5020882;28;20209;-75
2021/03/22 10:42:44;;;;;;;15.60;7.20;;;7.90;51.60;;;;;;5025384;28;20210;-76
2021/03/22 10:45:44;;;;;;;20.70;10.90;;;8.00;52.30;;;;;;5001077;28;20318;-76
2021/03/22 10:48:35;;;;;;;18.48;6.22;;;8.10;52.00;;;;;;5001014;28;20203;-76
2021/03/22 10:51:08;;;;;;;13.35;7.05;;;8.30;52.60;;;;;;5014116;28;20202;-76
2021/03/22 10:53:51;;;;;;;19.58;6.28;;;8.70;52.80;;;;;;5017557;28;20999;-75
2021/03/22 10:56:22;;;;;;;19.83;6.53;;;9.20;51.50;;;;;;5020808;28;20271;-76
2021/03/22 10:58:50;;;;;;;13.82;5.70;;;9.40;50.60;;;;;;5027673;28;20195;-76
2021/03/22 11:01:19;;;;;;;12.27;3.92;;;9.50;49.50;;;;;;5021000;28;20214;-76
2021/03/22 11:03:49;;;;;;;13.65;5.25;;;9.50;48.90;;;;;;5025170;28;20611;-76
2021/03/22 11:06:29;;;;;;;19.58;5.82;;;9.40;48.20;;;;;;5021394;28;20237;-76
2021/03/22 11:09:02;;;;;;;13.25;5.97;;;9.40;48.40;;;;;;5023891;28;20241;-76
2021/03/22 11:11:31;;;;;;;12.10;4.50;;;9.40;47.60;;;;;;5015720;28;20205;-76
2021/03/22 11:14:06;;;;;;;12.20;5.32;;;9.40;47.90;;;;;;5027303;28;20222;-76
2021/03/22 11:16:36;;;;;;;21.08;4.65;;;9.30;47.40;;;;;;5016376;28;20206;-76
2021/03/22 11:19:25;;;;;;;12.88;5.50;;;9.20;46.70;;;;;;5028220;28;20203;-76
2021/03/22 11:21:56;;;;;;;24.95;9.73;;;9.10;47.10;;;;;;5025929;28;20186;-75
2021/03/22 11:24:37;;;;;;;17.98;9.18;;;9.00;47.10;;;;;;5017498;28;20250;-76
2021/03/22 11:27:07;;;;;;;18.60;8.23;;;8.90;47.50;;;;;;5025986;28;20234;-77
2021/03/22 11:29:47;;;;;;;17.42;5.55;;;8.80;47.80;;;;;;5016193;28;20217;-74
2021/03/22 11:32:19;;;;;;;14.68;6.60;;;8.90;48.90;;;;;;5021062;28;20673;-76
2021/03/22 11:34:49;;;;;;;12.90;6.50;;;8.90;49.10;;;;;;5026322;28;20256;-75
2021/03/22 11:37:20;;;;;;;19.25;5.00;;;8.90;48.60;;;;;;5022606;28;20213;-76
2021/03/22 11:40:06;;;;;;;14.68;5.90;;;9.00;48.80;;;;;;5029656;28;20191;-76
2021/03/22 11:42:36;;;;;;;14.82;6.53;;;8.90;48.30;;;;;;5017379;28;20298;-76
2021/03/22 11:45:27;;;;;;;11.95;6.20;;;8.70;48.90;;;;;;5028993;28;20705;-76
2021/03/22 11:47:57;;;;;;;14.35;6.50;;;8.50;48.70;;;;;;5029953;28;20328;-77
2021/03/22 11:50:43;;;;;;;14.07;5.50;;;8.40;49.90;;;;;;5020161;28;20293;-76
2021/03/22 11:53:14;;;;;;;19.20;6.20;;;8.30;50.50;;;;;;5027528;28;20288;-76
2021/03/22 11:55:45;;;;;;;13.15;5.88;;;8.20;50.00;;;;;;5026011;28;20283;-76
2021/03/22 11:58:32;;;;;;;12.02;5.75;;;8.10;49.40;;;;;;5027639;28;20206;-76
2021/03/22 12:01:15;;;;;;;11.07;4.60;;;8.00;49.80;;;;;;5027845;28;20205;-76
2021/03/22 12:03:42;;;;;;;11.93;5.45;;;8.00;50.30;;;;;;5022438;28;20213;-77
2021/03/22 12:06:11;;;;;;;13.90;4.18;;;8.00;50.10;;;;;;5029197;28;20238;-76
2021/03/22 12:08:41;;;;;;;17.60;5.70;;;8.00;50.40;;;;;;5022705;28;23384;-76
2021/03/22 12:11:14;;;;;;;16.00;5.55;;;7.90;50.20;;;;;;5029552;28;20206;-75
2021/03/22 12:13:44;;;;;;;13.68;4.10;;;7.80;49.30;;;;;;5024890;28;20382;-77
2021/03/22 12:16:20;;;;;;;12.13;4.65;;;7.80;48.90;;;;;;5027494;28;20289;-75
2021/03/22 12:18:50;;;;;;;17.48;4.88;;;7.70;49.10;;;;;;5027882;28;20194;-76
2021/03/22 12:21:22;;;;;;;13.98;4.63;;;7.60;49.50;;;;;;5023781;28;20731;-76
2021/03/22 12:23:49;;;;;;;22.73;5.75;;;7.40;49.10;;;;;;5028864;28;20199;-76
2021/03/22 12:26:19;;;;;;;10.88;4.93;;;7.40;49.60;;;;;;5024274;28;20224;-76
2021/03/22 12:28:54;;;;;;;18.30;5.68;;;7.30;49.90;;;;;;5027342;28;20281;-75
2021/03/22 12:31:23;;;;;;;12.93;4.70;;;7.20;49.80;;;;;;5020304;28;20668;-81
2021/03/22 12:33:54;;;;;;;12.05;4.32;;;7.10;50.20;;;;;;5029203;28;20202;-76
2021/03/22 12:36:21;;;;;;;15.63;5.00;;;7.00;50.30;;;;;;5020009;28;20568;-76
2021/03/22 12:38:49;;;;;;;13.52;5.80;;;6.90;50.70;;;;;;5025536;28;20750;-76
2021/03/22 12:41:19;;;;;;;15.68;5.90;;;6.90;50.90;;;;;;5028432;28;20198;-76
2021/03/22 12:43:46;;;;;;;10.38;5.00;;;6.90;51.20;;;;;;5019079;28;20206;-76
2021/03/22 12:46:22;;;;;;;14.75;4.65;;;6.80;51.40;;;;;;5028556;28;20218;-76
2021/03/22 12:48:48;;;;;;;9.60;3.83;;;6.80;51.50;;;;;;5018879;28;20209;-76
2021/03/22 12:51:18;;;;;;;24.25;11.35;;;6.80;51.70;;;;;;5029819;28;20206;-76
2021/03/22 12:53:45;;;;;;;12.93;6.25;;;6.70;51.90;;;;;;5017205;28;20222;-76
2021/03/22 12:56:12;;;;;;;19.05;4.63;;;6.70;52.20;;;;;;5028886;28;20209;-76
2021/03/22 12:58:42;;;;;;;13.45;5.20;;;6.60;52.20;;;;;;5018022;28;20684;-76
2021/03/22 13:01:15;;;;;;;9.32;3.88;;;6.60;52.40;;;;;;5026407;28;20195;-76
2021/03/22 13:03:42;;;;;;;14.23;4.60;;;6.60;52.20;;;;;;5018161;28;20821;-76
2021/03/22 13:06:11;;;;;;;14.82;5.35;;;6.60;52.10;;;;;;5029014;28;20604;-76
2021/03/22 13:08:38;;;;;;;17.48;4.28;;;6.70;52.70;;;;;;5016880;28;20237;-76
2021/03/22 13:11:09;;;;;;;14.00;6.38;;;6.60;52.20;;;;;;5028921;28;20633;-75
2021/03/22 13:13:35;;;;;;;13.13;4.40;;;6.60;52.20;;;;;;5019789;28;20661;-75
2021/03/22 13:16:05;;;;;;;11.43;4.30;;;6.70;52.10;;;;;;5028735;28;20206;-75
2021/03/22 13:18:34;;;;;;;15.80;4.50;;;6.70;52.20;;;;;;5021261;28;20812;-75
2021/03/22 13:21:08;;;;;;;9.07;3.40;;;6.60;51.80;;;;;;5027688;28;20194;-75
2021/03/22 13:23:36;;;;;;;13.57;5.22;;;6.60;51.70;;;;;;5019027;28;20246;-75